Time;durP1;ratioP1;P1;durP2;ratioP2;P2;SDS_P1;SDS_P2;PMS_P1;PMS_P2;Temp;Humidity;BMP_temperature;BMP_pressure;BME280_temperature;BME280_humidity;BME280_pressure;Samples;Min_cycle;Max_cycle;Signal;HPM_P1;HPM_P2
2021/11/12 06:27:23;;;;;;;95.80;41.33;;;;;;;6.30;87.84;101738.47;5069436;28;20390;-43
2021/11/12 06:29:49;;;;;;;105.50;42.90;;;;;;;6.29;87.73;101744.78;5069076;28;20025;-43
2021/11/12 06:32:14;;;;;;;108.90;43.28;;;;;;;6.31;87.78;101749.03;5069020;28;20140;-43
2021/11/12 06:34:40;;;;;;;123.35;46.17;;;;;;;6.32;87.75;101750.75;5069249;28;20061;-44
2021/11/12 06:37:05;;;;;;;112.78;44.70;;;;;;;6.31;87.63;101749.03;5069136;28;20086;-46
2021/11/12 06:39:31;;;;;;;109.50;43.67;;;;;;;6.32;87.73;101745.41;5064406;28;20029;-40
2021/11/12 06:41:59;;;;;;;119.38;45.95;;;;;;;6.35;87.86;101744.28;5067386;28;20032;-39
2021/11/12 06:44:40;;;;;;;;;;;;;;;6.31;87.70;101743.69;5068629;28;20430;-40
2021/11/12 06:52:16;;;;;;;125.95;49.20;;;;;;;6.23;87.96;101735.47;5068069;28;20482;-40
2021/11/12 06:54:41;;;;;;;127.47;48.75;;;;;;;6.26;88.12;101724.50;5068183;28;20107;-40
2021/11/12 06:57:07;;;;;;;131.05;49.00;;;;;;;6.23;88.04;101729.28;5068273;28;20135;-40
2021/11/12 06:59:32;;;;;;;144.13;51.33;;;;;;;6.21;88.22;101726.72;5070296;28;20040;-40
2021/11/12 07:01:58;;;;;;;135.57;51.60;;;;;;;6.22;88.13;101733.78;5067439;28;20099;-39
2021/11/12 07:04:23;;;;;;;145.15;53.47;;;;;;;6.21;88.50;101734.75;5066957;28;20115;-39
2021/11/12 07:06:48;;;;;;;138.15;51.72;;;;;;;6.22;88.46;101739.16;5061582;28;20036;-40
2021/11/12 07:09:14;;;;;;;145.25;54.42;;;;;;;6.23;88.50;101735.47;5068016;28;20029;-39
2021/11/12 07:11:39;;;;;;;149.85;53.40;;;;;;;6.25;88.93;101736.19;5068024;28;20373;-39
2021/11/12 07:14:05;;;;;;;142.48;53.20;;;;;;;6.23;88.56;101724.78;5047107;28;20068;-39
2021/11/12 07:16:32;;;;;;;159.70;54.72;;;;;;;6.23;88.71;101723.94;5048501;28;20388;-39
2021/11/12 07:18:57;;;;;;;159.88;56.28;;;;;;;6.21;88.83;101721.38;5048249;28;20067;-39
2021/11/12 07:21:26;;;;;;;161.38;56.40;;;;;;;6.20;88.73;101713.53;5066134;28;20491;-39
2021/11/12 07:23:54;;;;;;;154.43;55.70;;;;;;;6.20;89.16;101698.31;5065894;28;20024;-40
2021/11/12 07:26:19;;;;;;;158.45;54.17;;;;;;;6.23;88.61;101706.06;5057653;28;20115;-39
2021/11/12 07:28:49;;;;;;;168.13;55.85;;;;;;;6.22;88.45;101695.53;5055939;28;20043;-40
2021/11/12 07:31:19;;;;;;;158.30;54.47;;;;;;;6.20;88.64;101703.66;5066303;28;20036;-39
2021/11/12 07:33:46;;;;;;;145.00;54.47;;;;;;;6.20;88.59;101700.16;5066562;28;20040;-40
2021/11/12 07:44:21;;;;;;;140.82;51.30;;;;;;;6.43;87.68;101682.13;5034695;28;20522;-40
2021/11/12 07:46:59;;;;;;;141.10;52.60;;;;;;;6.65;86.82;101671.22;5035407;28;20084;-40
2021/11/12 07:49:25;;;;;;;125.63;48.17;;;;;;;6.89;85.73;101678.03;5038721;28;20033;-40
2021/11/12 07:51:50;;;;;;;123.80;47.53;;;;;;;7.15;84.57;101679.22;5048620;28;20025;-39
2021/11/12 07:54:15;;;;;;;118.22;44.65;;;;;;;7.35;82.90;101685.44;5053634;28;20069;-41
2021/11/12 07:56:41;;;;;;;122.63;45.83;;;;;;;7.66;81.91;101683.47;5039238;28;20106;-40
2021/11/12 07:59:06;;;;;;;114.20;45.10;;;;;;;7.66;81.63;101672.75;5045023;28;20166;-40
2021/11/12 08:01:32;;;;;;;109.60;44.35;;;;;;;7.98;80.53;101676.06;5053028;28;20047;-40
2021/11/12 08:04:00;;;;;;;106.50;44.08;;;;;;;8.26;79.26;101658.22;5047825;28;20028;-40
2021/11/12 08:06:27;;;;;;;;;;;;;;;8.00;80.04;101660.69;5046807;28;20028;-40
2021/11/12 08:08:57;;;;;;;110.05;43.08;;;;;;;8.51;78.17;101660.25;5039525;28;19940;-41
2021/11/12 08:11:30;;;;;;;107.63;42.60;;;;;;;8.79;76.53;101660.25;5037157;28;20029;-40
2021/11/12 08:14:03;;;;;;;99.68;42.60;;;;;;;8.73;77.76;101660.84;5051157;28;20118;-40
2021/11/12 08:19:57;;;;;;;99.57;40.13;;;;;;;9.43;73.70;101653.03;5042283;28;20138;-41
2021/11/12 08:22:06;;;;;;;103.18;41.97;;;;;;;9.37;73.74;101656.31;5038791;28;20099;-42
2021/11/12 08:27:16;;;;;;;;;;;;;;;9.41;73.71;101650.47;5034136;28;20056;-41
2021/11/12 08:41:06;;;;;;;94.05;41.33;;;;;;;10.03;71.93;101630.75;5051731;28;20029;-41
2021/11/12 08:43:20;;;;;;;99.72;42.22;;;;;;;9.85;71.68;101617.38;5048389;28;20485;-42
2021/11/12 08:48:25;;;;;;;100.85;41.80;;;;;;;10.41;70.56;101610.66;5033032;28;20123;-41
2021/11/12 08:50:52;;;;;;;95.53;41.97;;;;;;;10.69;69.81;101613.94;5042326;28;20044;-41
2021/11/12 08:53:18;;;;;;;96.35;42.38;;;;;;;10.67;68.66;101615.97;5044605;28;20106;-40
2021/11/12 08:55:45;;;;;;;104.25;43.58;;;;;;;10.43;69.07;101623.94;5053255;28;20059;-40
2021/11/12 08:58:11;;;;;;;89.88;41.05;;;;;;;10.62;68.96;101618.28;5050643;28;20033;-41
2021/11/12 09:00:39;;;;;;;108.60;43.45;;;;;;;10.66;67.66;101625.03;5057779;28;20029;-40
2021/11/12 09:03:04;;;;;;;98.67;42.03;;;;;;;10.83;67.96;101608.94;5038969;28;20112;-40
2021/11/12 09:05:30;;;;;;;103.90;46.85;;;;;;;10.08;69.92;101609.59;5039870;28;20136;-41
2021/11/12 09:07:55;;;;;;;97.30;43.25;;;;;;;9.97;70.83;101604.50;5052535;28;20070;-40
2021/11/12 09:10:24;;;;;;;105.38;45.67;;;;;;;9.96;70.76;101600.97;5046757;28;20091;-40
2021/11/12 09:13:08;;;;;;;104.60;46.22;;;;;;;9.73;71.50;101597.97;5049329;28;20195;-41
2021/11/12 09:15:33;;;;;;;104.25;44.70;;;;;;;9.63;71.97;101595.38;5046788;28;20037;-41
2021/11/12 09:18:01;;;;;;;106.80;46.80;;;;;;;9.66;71.52;101594.22;5036391;28;20127;-42
2021/11/12 09:20:30;;;;;;;104.35;44.72;;;;;;;9.66;71.24;101588.84;5032840;28;20026;-41
2021/11/12 09:22:58;;;;;;;106.70;42.45;;;;;;;9.89;71.02;101584.63;5044089;28;20032;-40
2021/11/12 09:25:24;;;;;;;106.97;46.08;;;;;;;9.92;71.16;101583.47;5046137;28;20045;-40
2021/11/12 09:27:50;;;;;;;105.20;44.78;;;;;;;10.25;70.31;101587.19;5046641;28;20072;-41
2021/11/12 09:30:23;;;;;;;101.57;44.78;;;;;;;10.12;69.70;101581.41;5046396;28;20052;-40
2021/11/12 09:32:54;;;;;;;106.30;43.05;;;;;;;9.89;70.50;101581.09;5064126;28;20036;-39
2021/11/12 09:35:19;;;;;;;102.18;40.38;;;;;;;10.04;69.38;101571.44;5069672;28;20383;-39
2021/11/12 09:37:45;;;;;;;109.97;41.95;;;;;;;9.74;70.37;101578.19;5053089;28;20025;-40
2021/11/12 09:40:10;;;;;;;109.15;44.67;;;;;;;9.49;71.97;101569.09;5050574;28;20091;-39
2021/11/12 09:42:38;;;;;;;110.15;43.33;;;;;;;9.60;71.58;101568.00;5034506;28;20029;-40
2021/11/12 09:45:05;;;;;;;110.05;43.15;;;;;;;9.53;72.31;101561.53;5052234;28;20035;-39
2021/11/12 09:47:31;;;;;;;114.88;43.15;;;;;;;9.18;72.54;101555.25;5048018;28;20030;-40
2021/11/12 09:50:00;;;;;;;109.00;43.13;;;;;;;9.27;72.25;101554.34;5041798;28;20037;-39
2021/11/12 09:52:27;;;;;;;122.78;45.83;;;;;;;8.79;74.05;101563.63;5047783;28;20033;-40
2021/11/12 09:54:53;;;;;;;128.57;45.58;;;;;;;8.94;74.10;101555.88;5041655;28;20423;-41
2021/11/12 09:57:19;;;;;;;114.45;44.03;;;;;;;9.04;73.70;101555.81;5040777;28;20040;-41
2021/11/12 09:59:57;;;;;;;124.57;43.92;;;;;;;8.86;73.81;101547.75;5044639;28;20033;-39
2021/11/12 10:02:22;;;;;;;122.45;43.42;;;;;;;8.79;74.78;101542.16;5053541;28;20387;-39
2021/11/12 10:04:48;;;;;;;129.05;45.30;;;;;;;8.97;74.22;101545.66;5050250;28;20023;-39
2021/11/12 10:07:15;;;;;;;123.20;44.60;;;;;;;8.87;74.28;101544.91;5034437;28;20033;-40
2021/11/12 10:09:43;;;;;;;111.75;44.10;;;;;;;9.36;73.30;101533.75;5034300;28;20048;-40
2021/11/12 10:12:09;;;;;;;111.38;41.65;;;;;;;9.61;72.23;101529.34;5037149;28;20025;-41
2021/11/12 10:14:43;;;;;;;116.70;42.50;;;;;;;9.67;71.63;101534.13;5050142;28;20021;-40
2021/11/12 10:17:09;;;;;;;107.10;42.08;;;;;;;9.54;71.56;101529.16;5039320;28;20048;-40
2021/11/12 10:19:46;;;;;;;117.53;43.60;;;;;;;9.69;71.81;101532.13;5036623;28;20025;-40
2021/11/12 10:22:13;;;;;;;102.22;39.58;;;;;;;9.66;70.98;101530.59;5051561;28;20366;-40
2021/11/12 10:24:41;;;;;;;107.00;41.58;;;;;;;9.55;70.61;101521.94;5034399;28;20366;-40
2021/11/12 10:27:13;;;;;;;111.05;42.47;;;;;;;9.38;71.73;101516.47;5032184;28;20049;-40
2021/11/12 10:29:44;;;;;;;107.30;40.63;;;;;;;9.67;71.09;101509.91;5048853;28;20064;-40
2021/11/12 10:32:11;;;;;;;114.75;43.15;;;;;;;9.60;71.02;101500.81;5031576;28;20041;-40
2021/11/12 10:34:40;;;;;;;112.00;41.33;;;;;;;9.76;70.42;101508.09;5046037;28;20028;-40
2021/11/12 10:37:12;;;;;;;102.60;39.17;;;;;;;9.58;70.50;101500.94;5050535;28;20037;-40
2021/11/12 10:39:43;;;;;;;108.60;39.22;;;;;;;9.70;70.91;101496.16;5038544;28;20408;-40
2021/11/12 10:42:16;;;;;;;107.75;39.28;;;;;;;10.04;69.12;101503.38;5039318;28;20029;-40
2021/11/12 10:44:51;;;;;;;96.88;39.05;;;;;;;9.67;70.05;101493.78;5051167;28;20556;-40
2021/11/12 10:47:18;;;;;;;98.53;38.10;;;;;;;9.81;69.63;101490.50;5034996;28;20026;-40
2021/11/12 10:49:49;;;;;;;108.88;38.85;;;;;;;9.66;70.67;101486.72;5031775;28;20033;-41
2021/11/12 10:52:20;;;;;;;93.70;36.55;;;;;;;9.47;71.30;101484.25;5031910;28;20040;-40
2021/11/12 10:55:00;;;;;;;98.18;36.47;;;;;;;9.61;70.81;101467.53;5040303;28;20078;-40
2021/11/12 10:57:32;;;;;;;89.10;36.60;;;;;;;9.59;70.91;101464.19;5049867;28;20052;-40
2021/11/12 11:00:16;;;;;;;102.95;38.78;;;;;;;9.53;70.98;101448.69;5068814;28;20047;-40
2021/11/12 11:02:52;;;;;;;91.75;36.47;;;;;;;9.65;71.03;101452.78;5037312;28;20064;-40
2021/11/12 11:05:19;;;;;;;78.18;32.65;;;;;;;9.89;70.41;101450.19;5045611;28;20033;-40
2021/11/12 11:07:54;;;;;;;87.43;34.60;;;;;;;9.94;69.96;101443.50;5040749;28;20048;-40
2021/11/12 11:10:41;;;;;;;97.18;36.30;;;;;;;9.89;70.67;101436.75;5049937;28;20048;-39
2021/11/12 11:13:10;;;;;;;80.85;34.22;;;;;;;9.81;70.79;101435.88;5045581;28;20036;-40
2021/11/12 11:15:44;;;;;;;89.50;33.17;;;;;;;9.65;71.68;101433.97;5044158;28;20392;-40
2021/11/12 11:18:26;;;;;;;84.20;32.20;;;;;;;9.47;71.70;101423.31;5038144;28;20029;-40
2021/11/12 11:21:03;;;;;;;81.63;31.35;;;;;;;9.65;71.54;101417.84;5045245;28;20384;-40
2021/11/12 11:23:41;;;;;;;80.78;31.60;;;;;;;9.54;71.33;101402.88;5042956;28;20115;-40
2021/11/12 11:26:07;;;;;;;;;;;;;;;9.43;72.12;101403.16;5055422;28;20124;-40
2021/11/12 11:28:34;;;;;;;71.05;28.83;;;;;;;9.32;72.39;101398.91;5053913;28;19956;-41
2021/11/12 11:31:12;;;;;;;80.45;29.60;;;;;;;9.21;72.21;101399.16;5038662;28;20026;-40
2021/11/12 11:33:39;;;;;;;79.32;30.73;;;;;;;9.20;72.98;101390.28;5040428;28;20033;-39
2021/11/12 11:36:06;;;;;;;74.00;30.50;;;;;;;9.16;73.10;101388.06;5054723;28;20033;-40
2021/11/12 11:38:34;;;;;;;73.75;33.75;;;;;;;9.20;73.27;101381.38;5048467;28;20052;-40
2021/11/12 11:41:00;;;;;;;81.10;30.50;;;;;;;9.23;73.16;101381.03;5045015;28;20041;-40
2021/11/12 11:43:28;;;;;;;83.90;33.40;;;;;;;9.21;73.62;101375.00;5048686;28;20166;-40
2021/11/12 11:45:58;;;;;;;75.38;32.20;;;;;;;9.30;73.68;101368.66;5049720;28;20063;-40
2021/11/12 11:48:25;;;;;;;85.22;34.15;;;;;;;9.33;73.75;101362.13;5053378;28;20067;-40
2021/11/12 11:50:59;;;;;;;78.85;32.97;;;;;;;9.32;73.76;101361.31;5047072;28;20029;-40
2021/11/12 11:53:42;;;;;;;88.13;34.58;;;;;;;9.48;73.85;101370.41;5038575;28;20056;-40
2021/11/12 11:56:19;;;;;;;77.88;32.08;;;;;;;9.50;73.27;101361.19;5048043;28;20025;-40
2021/11/12 11:58:52;;;;;;;69.97;30.75;;;;;;;9.46;72.99;101354.47;5052924;28;20021;-40
2021/11/12 12:01:27;;;;;;;69.10;31.35;;;;;;;9.39;72.89;101353.41;5048793;28;20064;-38
2021/11/12 12:04:12;;;;;;;73.75;31.27;;;;;;;9.31;73.36;101345.34;5052978;28;20031;-39
2021/11/12 12:06:57;;;;;;;69.18;28.77;;;;;;;9.27;73.60;101341.28;5046923;28;20036;-41
2021/11/12 12:09:41;;;;;;;84.82;32.95;;;;;;;9.24;74.42;101334.38;5052497;28;20033;-41
2021/11/12 12:12:07;;;;;;;66.05;29.27;;;;;;;9.28;72.75;101329.53;5042597;28;20033;-40
2021/11/12 12:14:34;;;;;;;70.15;29.60;;;;;;;9.32;73.04;101329.06;5047269;28;20392;-40
2021/11/12 12:17:12;;;;;;;70.28;28.27;;;;;;;9.32;72.97;101333.56;5037555;28;20033;-41
2021/11/12 12:34:27;;;;;;;70.90;26.70;;;;;;;9.42;71.80;101310.09;5046137;28;20610;-40
2021/11/12 13:21:32;;;;;;;;;;;;;;;10.39;66.09;101205.50;5013651;28;20083;-41
2021/11/12 13:24:15;;;;;;;54.38;20.55;;;;;;;10.48;66.44;101201.81;5052421;28;20333;-40
2021/11/12 13:26:41;;;;;;;53.67;20.65;;;;;;;10.50;66.43;101205.13;5045570;28;20048;-40
2021/11/12 13:29:06;;;;;;;53.75;18.77;;;;;;;10.55;66.13;101202.75;5045930;28;20045;-40
2021/11/12 13:31:32;;;;;;;57.22;19.35;;;;;;;10.56;66.11;101204.47;5042295;28;20120;-40
2021/11/12 13:34:05;;;;;;;51.30;19.80;;;;;;;10.61;65.99;101195.84;5045540;28;20091;-40
2021/11/12 13:36:32;;;;;;;48.75;18.15;;;;;;;10.45;66.17;101183.28;5038406;28;20087;-40
2021/11/12 13:39:06;;;;;;;49.30;18.55;;;;;;;10.47;65.92;101174.03;5037135;28;20031;-39
2021/11/12 13:41:40;;;;;;;47.03;20.02;;;;;;;10.41;66.15;101168.50;5035937;28;20022;-40
2021/11/12 13:44:08;;;;;;;50.00;18.63;;;;;;;10.35;66.67;101169.19;5036125;28;20508;-42
2021/11/12 13:46:44;;;;;;;49.35;18.92;;;;;;;10.35;66.81;101172.75;5042744;28;20018;-41
2021/11/12 13:49:09;;;;;;;47.00;19.02;;;;;;;10.33;67.08;101158.63;5033119;28;20025;-40
2021/11/12 13:51:35;;;;;;;51.20;18.60;;;;;;;10.36;66.28;101168.19;5052424;28;20078;-40
2021/11/12 13:54:04;;;;;;;46.60;17.65;;;;;;;10.37;67.09;101162.63;5046594;28;20029;-40
2021/11/12 13:56:33;;;;;;;45.00;17.98;;;;;;;10.39;67.00;101165.16;5038881;28;20186;-39
2021/11/12 13:59:07;;;;;;;45.80;17.95;;;;;;;10.36;66.22;101160.13;5047255;28;20492;-40
2021/11/12 14:01:35;;;;;;;47.58;17.35;;;;;;;10.42;67.02;101173.69;5048218;28;20132;-39
2021/11/12 14:04:01;;;;;;;58.03;17.58;;;;;;;10.46;66.60;101166.16;5032186;28;20029;-40
2021/11/12 14:06:34;;;;;;;44.42;16.70;;;;;;;10.42;66.77;101170.19;5056564;28;20029;-40
2021/11/12 14:09:03;;;;;;;46.55;16.85;;;;;;;10.49;66.50;101165.78;5042835;28;20021;-41
2021/11/12 14:11:31;;;;;;;45.17;16.23;;;;;;;10.46;66.55;101168.84;5044350;28;20369;-39
2021/11/12 14:14:00;;;;;;;38.30;17.08;;;;;;;10.42;65.99;101164.78;5055516;28;20504;-40
2021/11/12 14:16:36;;;;;;;50.03;17.90;;;;;;;10.44;66.32;101149.31;5050612;28;20476;-40
2021/11/12 14:24:29;;;;;;;45.70;15.30;;;;;;;10.44;66.36;101135.88;5066045;28;19924;-40
2021/11/12 14:35:27;;;;;;;36.92;15.73;;;;;;;10.37;67.16;101129.50;5032270;28;20042;-39
2021/11/12 14:38:13;;;;;;;41.88;15.15;;;;;;;10.31;67.01;101126.50;5043481;28;20365;-40
2021/11/12 14:44:03;;;;;;;43.72;16.63;;;;;;;10.20;67.15;101132.22;5046684;28;20502;-39
2021/11/12 14:46:40;;;;;;;39.22;14.40;;;;;;;10.24;68.07;101130.88;5049921;28;20404;-40
2021/11/12 14:49:24;;;;;;;40.78;14.80;;;;;;;10.24;67.90;101122.81;5052236;28;20128;-41
2021/11/12 14:52:02;;;;;;;37.75;15.23;;;;;;;10.23;67.22;101117.59;5044785;28;20042;-42
2021/11/12 14:54:34;;;;;;;;;;;;;;;10.24;67.62;101120.13;5046540;28;20036;-40
2021/11/12 14:57:03;;;;;;;41.90;14.93;;;;;;;10.27;67.59;101111.72;5051938;28;20074;-41
2021/11/12 14:59:29;;;;;;;33.38;13.68;;;;;;;10.20;67.86;101126.84;5042362;28;20487;-41
2021/11/12 15:01:54;;;;;;;36.42;14.25;;;;;;;10.15;67.87;101121.13;5046364;28;20064;-40
2021/11/12 15:04:20;;;;;;;36.70;13.82;;;;;;;10.15;67.86;101112.22;5045357;28;20040;-42
2021/11/12 15:06:46;;;;;;;33.72;14.70;;;;;;;10.12;67.70;101121.47;5053908;28;20025;-41
2021/11/12 15:09:32;;;;;;;39.47;15.13;;;;;;;10.09;67.34;101116.44;5048377;28;20040;-41
2021/11/12 15:12:03;;;;;;;43.83;14.60;;;;;;;10.06;67.07;101100.66;5053006;28;20036;-41
2021/11/12 15:14:33;;;;;;;37.08;15.38;;;;;;;10.06;67.25;101104.19;5048816;28;20029;-43
2021/11/12 15:16:58;;;;;;;41.08;16.40;;;;;;;10.04;67.15;101102.69;5035634;28;20177;-40
2021/11/12 15:19:25;;;;;;;36.95;14.95;;;;;;;10.06;66.88;101108.72;5043474;28;20463;-41
2021/11/12 15:29:32;;;;;;;42.65;15.93;;;;;;;10.08;66.88;101095.94;5052940;28;20049;-41
2021/11/12 15:34:36;;;;;;;41.38;15.93;;;;;;;10.03;67.29;101079.47;5044337;28;20101;-39
2021/11/12 15:37:26;;;;;;;41.60;16.08;;;;;;;10.01;67.57;101076.97;5049964;28;20036;-40
2021/11/12 15:44:43;;;;;;;34.00;15.05;;;;;;;10.01;66.95;101076.16;5052633;28;20063;-39
2021/11/12 15:47:21;;;;;;;47.22;16.48;;;;;;;10.02;67.03;101064.38;5053365;28;20025;-40
2021/11/12 15:49:46;;;;;;;39.90;16.15;;;;;;;10.01;67.52;101065.38;5054337;28;20029;-40
2021/11/12 16:13:11;;;;;;;32.90;15.32;;;;;;;9.97;67.88;101053.28;5068066;28;20036;-40
2021/11/12 16:15:47;;;;;;;35.72;15.02;;;;;;;9.98;67.97;101076.47;5067102;28;20047;-40
2021/11/12 16:26:15;;;;;;;39.83;16.83;;;;;;;9.98;68.30;101049.56;5043617;28;20106;-40
2021/11/12 16:28:55;;;;;;;40.85;14.98;;;;;;;9.99;68.08;101062.84;5047939;28;20037;-39
2021/11/12 16:31:22;;;;;;;36.10;15.35;;;;;;;10.01;68.40;101060.00;5037791;28;20357;-40
2021/11/12 16:33:48;;;;;;;38.95;16.85;;;;;;;10.01;68.30;101052.78;5053813;28;20025;-39
2021/11/12 16:36:13;;;;;;;34.40;15.80;;;;;;;10.03;68.47;101053.44;5044390;28;20047;-41
2021/11/12 16:38:39;;;;;;;33.30;15.02;;;;;;;10.03;69.46;101047.22;5052672;28;20024;-41
2021/11/12 16:41:17;;;;;;;33.70;15.38;;;;;;;9.97;69.27;101043.38;5055116;28;20028;-40
2021/11/12 16:44:00;;;;;;;39.97;15.00;;;;;;;9.96;70.05;101049.75;5047916;28;20034;-40
2021/11/12 16:46:44;;;;;;;36.13;15.07;;;;;;;9.93;69.94;101043.91;5053933;28;20025;-39
2021/11/12 16:49:42;;;;;;;39.33;15.73;;;;;;;9.92;70.19;101039.53;5053898;28;20024;-41
2021/11/12 16:52:16;;;;;;;41.67;16.58;;;;;;;9.91;69.83;101024.41;5045746;28;20113;-41
2021/11/12 16:54:50;;;;;;;37.75;15.10;;;;;;;9.94;69.90;101026.75;5034042;28;20036;-40
2021/11/12 17:10:47;;;;;;;35.90;16.60;;;;;;;9.81;70.86;101006.63;5033976;28;20120;-40
2021/11/12 17:45:25;;;;;;;35.40;17.00;;;;;;;9.68;71.66;101009.00;5044465;28;20083;-39
2021/11/12 17:47:51;;;;;;;40.63;18.83;;;;;;;9.63;71.76;101009.50;5043916;28;20120;-40
2021/11/12 17:51:00;;;;;;;35.65;17.27;;;;;;;9.59;71.85;101005.50;5035626;28;20084;-40
2021/11/12 17:53:47;;;;;;;40.78;16.52;;;;;;;9.58;71.95;101005.66;5035339;28;20059;-39
2021/11/12 18:01:41;;;;;;;44.97;18.38;;;;;;;9.53;72.28;101002.66;5028423;28;20125;-40
2021/11/12 18:02:04;;;;;;;40.03;18.13;;;;;;;9.54;72.48;100996.28;5029641;28;20096;-40
2021/11/12 18:04:40;;;;;;;40.25;18.08;;;;;;;9.54;72.65;100986.38;5029613;28;20025;-40
2021/11/12 18:10:36;;;;;;;37.42;17.55;;;;;;;9.51;73.45;100988.59;5036829;28;20051;-40
2021/11/12 21:48:21;;;;;;;83.57;31.58;;;;;;;9.54;90.68;100832.41;5032995;28;20486;-41
2021/11/12 21:50:47;;;;;;;87.93;31.98;;;;;;;9.55;90.94;100839.44;5047606;28;20373;-40
2021/11/12 21:53:13;;;;;;;78.93;33.00;;;;;;;9.55;91.12;100834.91;5060207;28;20464;-41
2021/11/12 21:55:39;;;;;;;85.97;32.60;;;;;;;9.54;91.44;100837.78;5032778;28;20052;-41
2021/11/12 21:58:05;;;;;;;83.05;32.70;;;;;;;9.55;91.30;100829.53;5043238;28;20494;-40
2021/11/12 22:00:31;;;;;;;72.68;31.75;;;;;;;9.56;91.67;100825.00;5052776;28;20044;-40
2021/11/12 22:02:57;;;;;;;82.90;33.67;;;;;;;9.56;91.87;100825.84;5045917;28;20431;-41
2021/11/12 22:05:23;;;;;;;87.18;34.55;;;;;;;9.58;91.94;100833.72;5050247;28;20075;-40
2021/11/12 22:07:48;;;;;;;89.95;36.75;;;;;;;9.54;92.00;100827.03;5038082;28;20033;-42
2021/11/12 22:10:15;;;;;;;87.03;34.70;;;;;;;9.55;91.85;100823.31;5033673;28;20032;-40
2021/11/12 22:12:40;;;;;;;82.07;35.22;;;;;;;9.53;92.13;100802.03;5032678;28;20080;-41
2021/11/12 22:15:07;;;;;;;82.20;35.75;;;;;;;9.49;92.20;100808.75;5032510;28;20428;-41
2021/11/12 22:17:32;;;;;;;88.15;35.85;;;;;;;9.52;91.93;100802.19;5032754;28;20120;-41
2021/11/12 22:19:58;;;;;;;96.10;35.42;;;;;;;9.54;91.97;100800.16;5032281;28;20464;-41
2021/11/12 22:22:23;;;;;;;84.63;34.40;;;;;;;9.54;91.67;100800.16;5041777;28;20021;-42
2021/11/12 22:24:49;;;;;;;81.75;35.83;;;;;;;9.56;91.84;100801.66;5032345;28;20030;-42
2021/11/12 22:27:14;;;;;;;94.78;35.20;;;;;;;9.59;91.83;100798.63;5049340;28;20048;-40
2021/11/12 22:29:40;;;;;;;80.38;33.67;;;;;;;9.60;91.49;100786.84;5062162;28;20447;-42
2021/11/12 22:32:05;;;;;;;91.88;35.90;;;;;;;9.59;91.67;100803.16;5024021;28;20017;-41
2021/11/12 22:34:30;;;;;;;83.35;33.35;;;;;;;9.57;91.85;100794.44;5052107;28;20018;-40
2021/11/12 22:36:56;;;;;;;81.38;34.03;;;;;;;9.56;92.27;100798.13;5038707;28;20041;-40
2021/11/12 22:39:22;;;;;;;91.78;36.42;;;;;;;9.57;92.49;100791.75;5052004;28;20104;-40
2021/11/12 22:41:51;;;;;;;92.80;37.92;;;;;;;9.52;93.04;100794.13;5045182;28;20049;-40
2021/11/12 22:44:17;;;;;;;97.35;37.88;;;;;;;9.49;93.50;100792.63;5061868;28;20115;-40
2021/11/12 22:46:43;;;;;;;101.53;40.47;;;;;;;9.48;93.93;100782.03;5048253;28;20112;-40
2021/11/12 22:49:09;;;;;;;94.28;40.40;;;;;;;9.44;94.61;100784.25;5050529;28;20021;-40
2021/11/12 22:51:35;;;;;;;105.00;42.60;;;;;;;9.42;94.58;100789.78;5054948;28;20503;-40
2021/11/12 22:54:01;;;;;;;95.20;40.72;;;;;;;9.44;94.48;100787.75;5036251;28;20573;-40
2021/11/12 22:56:27;;;;;;;102.47;39.75;;;;;;;9.44;94.84;100785.09;5032923;28;20061;-42
2021/11/12 22:58:53;;;;;;;89.53;39.58;;;;;;;9.43;94.75;100778.03;5052188;28;20384;-41
2021/11/12 23:01:23;;;;;;;94.97;40.78;;;;;;;9.45;94.97;100759.91;5052198;28;20033;-40
2021/11/12 23:03:48;;;;;;;95.65;38.78;;;;;;;9.45;94.81;100765.28;5038799;28;20123;-40
2021/11/12 23:06:14;;;;;;;91.05;38.28;;;;;;;9.46;94.70;100763.44;5030581;28;20492;-41
2021/11/12 23:08:39;;;;;;;92.15;37.25;;;;;;;9.49;95.01;100756.88;5039296;28;20041;-41
2021/11/12 23:11:05;;;;;;;86.75;39.88;;;;;;;9.52;94.61;100754.66;5035925;28;20034;-41
2021/11/12 23:13:31;;;;;;;96.63;38.25;;;;;;;9.58;94.69;100761.16;5035563;28;20078;-39
2021/11/12 23:15:58;;;;;;;90.50;37.15;;;;;;;9.60;94.52;100751.06;5034707;28;20037;-40
2021/11/12 23:18:24;;;;;;;92.38;36.22;;;;;;;9.63;94.22;100758.78;5036025;28;20032;-40
2021/11/12 23:20:50;;;;;;;85.15;36.22;;;;;;;9.67;94.43;100758.25;5036360;28;20026;-39
2021/11/12 23:23:16;;;;;;;85.00;35.83;;;;;;;9.70;94.33;100762.44;5036906;28;20108;-40
2021/11/12 23:25:41;;;;;;;89.80;36.08;;;;;;;9.72;94.13;100755.03;5036587;28;20060;-40
2021/11/12 23:28:07;;;;;;;81.47;35.60;;;;;;;9.73;94.03;100759.38;5036391;28;20524;-41
2021/11/12 23:30:32;;;;;;;90.38;37.45;;;;;;;9.74;94.25;100762.91;5035822;28;20025;-40
2021/11/12 23:32:58;;;;;;;85.75;39.55;;;;;;;9.74;94.29;100758.41;5035548;28;20025;-40
2021/11/12 23:35:23;;;;;;;84.80;38.72;;;;;;;9.77;94.27;100757.16;5035387;28;20034;-40
2021/11/12 23:37:48;;;;;;;84.07;36.95;;;;;;;9.80;93.73;100752.28;5035527;28;20144;-40
2021/11/12 23:40:14;;;;;;;89.45;39.45;;;;;;;9.72;94.06;100757.72;5035273;28;20384;-40
2021/11/12 23:42:39;;;;;;;93.82;42.10;;;;;;;9.71;94.54;100774.84;5035104;28;20040;-39
2021/11/12 23:45:06;;;;;;;103.53;42.05;;;;;;;9.72;94.83;100764.97;5037129;28;20124;-41
2021/11/12 23:47:31;;;;;;;92.95;41.20;;;;;;;9.73;94.78;100763.94;5053788;28;20029;-40
2021/11/12 23:49:56;;;;;;;93.07;40.25;;;;;;;9.72;95.13;100771.16;5055195;28;20123;-40
2021/11/12 23:52:22;;;;;;;94.72;41.38;;;;;;;9.73;95.22;100772.81;5055113;28;20032;-41
2021/11/12 23:54:47;;;;;;;89.10;40.78;;;;;;;9.76;95.56;100771.63;5053744;28;20032;-40
2021/11/12 23:57:12;;;;;;;102.60;41.33;;;;;;;9.77;95.41;100773.28;5054980;28;20063;-40
2021/11/12 23:59:38;;;;;;;90.28;40.58;;;;;;;9.78;95.73;100773.13;5053519;28;20020;-41
